createdAt,value
2023-03-15T00:00:28.012Z,98823.00
2023-03-15T00:02:01.604Z,98833.00
2023-03-15T00:03:37.159Z,98834.00
2023-03-15T00:05:13.877Z,98835.00
2023-03-15T00:06:48.616Z,98828.00
2023-03-15T00:08:22.783Z,98835.00
2023-03-15T00:09:56.975Z,98834.00
2023-03-15T00:11:31.855Z,98829.00
2023-03-15T00:13:04.882Z,98823.00
2023-03-15T00:14:38.279Z,98820.00
2023-03-15T00:16:18.255Z,98816.00
2023-03-15T00:17:50.737Z,98815.00
2023-03-15T00:19:23.828Z,98799.00
2023-03-15T00:20:57.325Z,98814.00
2023-03-15T00:22:31.774Z,98822.00
2023-03-15T00:24:05.337Z,98826.00
2023-03-15T00:25:37.899Z,98824.00
2023-03-15T00:27:11.707Z,98820.00
2023-03-15T00:28:45.481Z,98814.00
2023-03-15T00:30:18.860Z,98814.00
2023-03-15T00:31:51.580Z,98831.00
2023-03-15T00:33:24.723Z,98829.00
2023-03-15T00:34:56.907Z,98833.00
2023-03-15T00:36:30.295Z,98845.00
2023-03-15T00:38:05.024Z,98847.00
2023-03-15T00:39:39.590Z,98837.00
2023-03-15T00:41:17.843Z,98853.00
2023-03-15T00:42:52.125Z,98854.00
2023-03-15T00:44:26.545Z,98853.00
2023-03-15T00:46:00.240Z,98850.00
2023-03-15T00:47:33.608Z,98848.00
2023-03-15T00:49:05.747Z,98852.00
2023-03-15T00:50:39.046Z,98862.00
2023-03-15T00:52:12.744Z,98856.00
2023-03-15T00:53:49.754Z,98859.00
2023-03-15T00:55:23.138Z,98851.00
2023-03-15T00:56:56.223Z,98856.00
2023-03-15T00:58:29.544Z,98863.00
2023-03-15T01:00:08.630Z,98851.00
2023-03-15T01:01:44.665Z,98863.00
2023-03-15T01:03:17.867Z,98870.00
2023-03-15T01:04:51.782Z,98863.00
2023-03-15T01:06:27.989Z,98863.00
2023-03-15T01:08:03.000Z,98865.00
2023-03-15T01:09:38.487Z,98867.00
2023-03-15T01:11:15.933Z,98865.00
2023-03-15T01:12:49.028Z,98862.00
2023-03-15T01:14:22.163Z,98856.00
2023-03-15T01:15:54.539Z,98863.00
2023-03-15T01:17:28.437Z,98856.00
2023-03-15T01:19:02.158Z,98864.00
2023-03-15T01:20:34.401Z,98864.00
2023-03-15T01:22:07.481Z,98860.00
2023-03-15T01:23:42.720Z,98862.00
2023-03-15T01:25:17.509Z,98872.00
2023-03-15T01:26:51.632Z,98871.00
2023-03-15T01:28:25.265Z,98876.00
2023-03-15T01:29:58.492Z,98888.00
2023-03-15T01:31:32.473Z,98881.00
2023-03-15T01:33:05.935Z,98881.00
2023-03-15T01:34:39.231Z,98886.00
2023-03-15T01:36:12.737Z,98889.00
2023-03-15T01:37:46.724Z,98899.00
2023-03-15T01:39:20.469Z,98888.00
2023-03-15T01:40:55.120Z,98891.00
2023-03-15T01:42:28.296Z,98890.00
2023-03-15T01:44:01.657Z,98900.00
2023-03-15T01:46:24.662Z,98904.00
2023-03-15T01:47:59.356Z,98907.00
2023-03-15T01:49:34.893Z,98909.00
2023-03-15T01:51:16.988Z,98901.00
2023-03-15T01:52:50.340Z,98901.00
2023-03-15T01:54:32.837Z,98899.00
2023-03-15T01:56:08.137Z,98901.00
2023-03-15T01:57:51.148Z,98899.00
2023-03-15T01:59:33.479Z,98911.00
2023-03-15T02:01:09.982Z,98905.00
2023-03-15T02:02:53.503Z,98904.00
2023-03-15T02:04:37.532Z,98912.00
2023-03-15T02:06:10.656Z,98909.00
2023-03-15T02:07:54.610Z,98905.00
2023-03-15T02:09:38.033Z,98901.00
2023-03-15T02:11:14.708Z,98905.00
2023-03-15T02:12:53.413Z,98905.00
2023-03-15T02:14:27.146Z,98905.00
2023-03-15T02:16:01.313Z,98902.00
2023-03-15T02:17:45.684Z,98908.00
2023-03-15T02:19:42.444Z,98911.00
2023-03-15T02:21:37.252Z,98901.00
2023-03-15T02:23:15.541Z,98904.00
2023-03-15T02:25:01.858Z,98902.00
2023-03-15T02:26:45.025Z,98902.00
2023-03-15T02:28:20.093Z,98906.00
2023-03-15T02:29:53.726Z,98897.00
2023-03-15T02:31:28.071Z,98900.00
2023-03-15T02:33:08.146Z,98905.00
2023-03-15T02:34:41.280Z,98905.00
2023-03-15T02:36:21.654Z,98902.00
2023-03-15T02:37:55.109Z,98913.00
2023-03-15T02:39:28.225Z,98910.00
2023-03-15T02:41:00.896Z,98907.00
2023-03-15T02:42:34.282Z,98903.00
2023-03-15T02:44:14.887Z,98904.00
2023-03-15T02:45:49.186Z,98914.00
2023-03-15T02:47:28.336Z,98908.00
2023-03-15T02:49:01.711Z,98916.00
2023-03-15T02:50:35.267Z,98921.00
2023-03-15T02:52:09.901Z,98912.00
2023-03-15T02:53:42.090Z,98920.00
2023-03-15T02:55:15.234Z,98927.00
2023-03-15T02:56:48.552Z,98921.00
2023-03-15T02:58:21.747Z,98937.00
2023-03-15T02:59:57.147Z,98930.00
2023-03-15T03:01:31.828Z,98938.00
2023-03-15T03:03:05.948Z,98934.00
2023-03-15T03:04:39.702Z,98938.00
2023-03-15T03:06:15.841Z,98929.00
2023-03-15T03:07:50.355Z,98927.00
2023-03-15T03:09:24.767Z,98932.00
2023-03-15T03:10:58.579Z,98932.00
2023-03-15T03:12:32.056Z,98935.00
2023-03-15T03:14:06.112Z,98933.00
2023-03-15T03:15:40.581Z,98941.00
2023-03-15T03:17:14.148Z,98945.00
2023-03-15T03:18:47.717Z,98943.00
2023-03-15T03:20:21.497Z,98950.00
2023-03-15T03:21:54.276Z,98947.00
2023-03-15T03:23:28.273Z,98945.00
2023-03-15T03:25:02.459Z,98952.00
2023-03-15T03:26:38.074Z,98950.00
2023-03-15T03:28:11.411Z,98942.00
2023-03-15T03:29:45.275Z,98944.00
2023-03-15T03:31:23.280Z,98947.00
2023-03-15T03:32:58.008Z,98950.00
2023-03-15T03:34:31.457Z,98952.00
2023-03-15T03:36:05.023Z,98949.00
2023-03-15T03:37:38.926Z,98960.00
2023-03-15T03:39:37.977Z,98957.00
2023-03-15T03:41:10.875Z,98955.00
2023-03-15T03:42:44.654Z,98958.00
2023-03-15T03:44:19.229Z,98958.00
2023-03-15T03:45:52.723Z,98965.00
2023-03-15T03:47:27.673Z,98969.00
2023-03-15T03:49:01.221Z,98971.00
2023-03-15T03:50:34.454Z,98970.00
2023-03-15T03:52:08.441Z,98975.00
2023-03-15T03:53:42.108Z,98974.00
2023-03-15T03:55:14.515Z,98982.00
2023-03-15T03:56:50.128Z,98973.00
2023-03-15T03:58:22.686Z,98974.00
2023-03-15T04:00:00.869Z,98983.00
2023-03-15T04:01:37.741Z,98987.00
2023-03-15T04:03:12.625Z,98991.00
2023-03-15T04:04:50.557Z,98996.00
2023-03-15T04:06:26.530Z,98986.00
2023-03-15T04:07:59.831Z,98999.00
2023-03-15T04:09:37.805Z,98994.00
2023-03-15T04:11:11.922Z,99008.00
2023-03-15T04:12:47.132Z,99004.00
2023-03-15T04:14:21.080Z,99002.00
2023-03-15T04:15:57.530Z,99003.00
2023-03-15T04:17:33.229Z,99010.00
2023-03-15T04:19:08.675Z,99007.00
2023-03-15T04:20:46.658Z,99010.00
2023-03-15T04:22:19.355Z,99018.00
2023-03-15T04:24:05.251Z,99024.00
2023-03-15T04:25:57.831Z,99022.00
2023-03-15T04:27:58.902Z,99022.00
2023-03-15T04:29:52.277Z,99032.00
2023-03-15T04:31:45.281Z,99037.00
2023-03-15T04:33:29.963Z,99034.00
2023-03-15T04:35:38.975Z,99034.00
2023-03-15T04:37:25.903Z,99033.00
2023-03-15T04:39:26.308Z,99038.00
2023-03-15T04:41:27.933Z,99042.00
2023-03-15T04:43:19.582Z,99044.00
2023-03-15T04:45:01.804Z,99051.00
2023-03-15T04:47:00.968Z,99060.00
2023-03-15T04:48:52.975Z,99060.00
2023-03-15T04:50:47.704Z,99058.00
2023-03-15T04:52:39.608Z,99054.00
2023-03-15T04:54:31.408Z,99056.00
2023-03-15T04:56:42.002Z,99052.00
2023-03-15T04:58:33.602Z,99050.00
2023-03-15T05:00:21.648Z,99041.00
2023-03-15T05:02:24.152Z,99042.00
2023-03-15T05:04:11.050Z,99042.00
2023-03-15T05:05:58.689Z,99059.00
2023-03-15T05:07:46.211Z,99052.00
2023-03-15T05:09:39.707Z,99057.00
2023-03-15T05:11:33.512Z,99064.00
2023-03-15T05:13:18.864Z,99064.00
2023-03-15T05:15:03.638Z,99074.00
2023-03-15T05:16:58.662Z,99071.00
2023-03-15T05:18:46.185Z,99078.00
2023-03-15T05:20:18.942Z,99075.00
2023-03-15T05:22:00.038Z,99074.00
2023-03-15T05:23:57.412Z,99076.00
2023-03-15T05:25:45.146Z,99077.00
2023-03-15T05:27:35.409Z,99072.00
2023-03-15T05:29:30.213Z,99086.00
2023-03-15T05:31:23.581Z,99093.00
2023-03-15T05:33:17.518Z,99085.00
2023-03-15T05:35:11.511Z,99101.00
2023-03-15T05:37:09.475Z,99095.00
2023-03-15T05:39:02.987Z,99100.00
2023-03-15T05:40:56.455Z,99102.00
2023-03-15T05:42:48.461Z,99110.00
2023-03-15T05:44:43.252Z,99113.00
2023-03-15T05:46:25.487Z,99122.00
2023-03-15T05:48:21.668Z,99123.00
2023-03-15T05:50:18.290Z,99128.00
2023-03-15T05:52:16.720Z,99122.00
2023-03-15T05:54:03.215Z,99129.00
2023-03-15T05:55:58.443Z,99129.00
2023-03-15T05:57:50.883Z,99139.00
2023-03-15T05:59:38.585Z,99143.00
2023-03-15T06:01:26.717Z,99143.00
2023-03-15T06:03:12.959Z,99138.00
2023-03-15T06:05:01.953Z,99151.00
2023-03-15T06:06:35.376Z,99153.00
2023-03-15T06:08:12.068Z,99150.00
2023-03-15T06:09:48.596Z,99159.00
2023-03-15T06:11:22.163Z,99168.00
2023-03-15T06:12:56.157Z,99163.00
2023-03-15T06:14:31.032Z,99165.00
2023-03-15T06:16:08.734Z,99176.00
2023-03-15T06:17:45.863Z,99171.00
2023-03-15T06:19:19.111Z,99162.00
2023-03-15T06:20:52.469Z,99184.00
2023-03-15T06:22:26.492Z,99182.00
2023-03-15T06:24:07.536Z,99181.00
2023-03-15T06:25:41.299Z,99181.00
2023-03-15T06:27:14.398Z,99188.00
2023-03-15T06:28:47.632Z,99183.00
2023-03-15T06:30:21.109Z,99180.00
2023-03-15T06:31:58.355Z,99182.00
2023-03-15T06:33:33.528Z,99179.00
2023-03-15T06:35:08.855Z,99182.00
2023-03-15T06:36:42.678Z,99187.00
2023-03-15T06:38:15.839Z,99187.00
2023-03-15T06:39:50.984Z,99186.00
2023-03-15T06:41:24.188Z,99192.00
2023-03-15T06:43:05.931Z,99199.00
2023-03-15T06:44:39.785Z,99199.00
2023-03-15T06:46:14.566Z,99196.00
2023-03-15T06:47:47.818Z,99197.00
2023-03-15T06:49:22.664Z,99218.00
2023-03-15T06:50:56.504Z,99210.00
2023-03-15T06:52:30.141Z,99213.00
2023-03-15T06:54:03.398Z,99209.00
2023-03-15T06:55:40.406Z,99219.00
2023-03-15T06:57:13.759Z,99212.00
2023-03-15T06:58:46.842Z,99220.00
2023-03-15T07:00:21.086Z,99226.00
2023-03-15T07:01:54.289Z,99210.00
2023-03-15T07:03:27.404Z,99219.00
2023-03-15T07:05:01.178Z,99217.00
2023-03-15T07:06:35.218Z,99218.00
2023-03-15T07:08:08.660Z,99230.00
2023-03-15T07:09:42.419Z,99236.00
2023-03-15T07:11:16.847Z,99232.00
2023-03-15T07:12:50.022Z,99236.00
2023-03-15T07:14:23.390Z,99233.00
2023-03-15T07:15:57.605Z,99240.00
2023-03-15T07:17:30.704Z,99238.00
2023-03-15T07:19:04.394Z,99233.00
2023-03-15T07:20:38.297Z,99241.00
2023-03-15T07:22:11.705Z,99237.00
2023-03-15T07:23:45.245Z,99249.00
2023-03-15T07:25:23.762Z,99248.00
2023-03-15T07:26:58.437Z,99248.00
2023-03-15T07:28:31.683Z,99258.00
2023-03-15T07:30:07.253Z,99257.00
2023-03-15T07:31:40.404Z,99272.00
2023-03-15T07:33:13.571Z,99276.00
2023-03-15T07:34:46.783Z,99276.00
2023-03-15T07:36:19.898Z,99286.00
2023-03-15T07:37:53.154Z,99286.00
2023-03-15T07:39:29.224Z,99286.00
2023-03-15T07:41:04.166Z,99286.00
2023-03-15T07:42:39.199Z,99276.00
2023-03-15T07:44:13.643Z,99286.00
2023-03-15T07:45:46.764Z,99285.00
2023-03-15T07:47:19.865Z,99278.00
2023-03-15T07:48:52.931Z,99286.00
2023-03-15T07:50:26.082Z,99280.00
2023-03-15T07:51:59.173Z,99284.00
2023-03-15T07:53:32.387Z,99289.00
2023-03-15T07:55:08.256Z,99292.00
2023-03-15T07:56:41.602Z,99298.00
2023-03-15T07:58:19.741Z,99304.00
2023-03-15T07:59:53.530Z,99304.00
2023-03-15T08:01:27.223Z,99319.00
2023-03-15T08:03:00.698Z,99321.00
2023-03-15T08:04:35.737Z,99321.00
2023-03-15T08:06:10.044Z,99326.00
2023-03-15T08:07:43.235Z,99329.00
2023-03-15T08:09:16.374Z,99331.00
2023-03-15T08:10:49.770Z,99332.00
2023-03-15T08:12:22.897Z,99347.00
2023-03-15T08:13:57.401Z,99340.00
2023-03-15T08:15:30.604Z,99342.00
2023-03-15T08:17:03.713Z,99348.00
2023-03-15T08:18:37.029Z,99356.00
2023-03-15T08:20:14.735Z,99357.00
2023-03-15T08:21:47.981Z,99358.00
2023-03-15T08:23:21.806Z,99361.00
2023-03-15T08:24:55.161Z,99367.00
2023-03-15T08:26:28.489Z,99361.00
2023-03-15T08:28:02.180Z,99353.00
2023-03-15T08:29:37.424Z,99366.00
2023-03-15T08:31:13.919Z,99378.00
2023-03-15T08:32:49.354Z,99371.00
2023-03-15T08:34:22.611Z,99381.00
2023-03-15T08:35:56.401Z,99388.00
2023-03-15T08:37:29.600Z,99383.00
2023-03-15T08:39:05.313Z,99386.00
2023-03-15T08:40:39.834Z,99380.00
2023-03-15T08:42:13.576Z,99386.00
2023-03-15T08:43:46.879Z,99381.00
2023-03-15T08:45:23.858Z,99393.00
2023-03-15T08:46:57.044Z,99395.00
2023-03-15T08:48:31.673Z,99390.00
2023-03-15T08:50:08.093Z,99397.00
2023-03-15T08:51:41.287Z,99397.00
2023-03-15T08:53:14.724Z,99411.00
2023-03-15T08:54:47.929Z,99406.00
2023-03-15T08:56:21.193Z,99408.00
2023-03-15T08:57:54.738Z,99402.00
2023-03-15T08:59:32.352Z,99417.00
2023-03-15T09:01:07.101Z,99419.00
2023-03-15T09:02:40.698Z,99417.00
2023-03-15T09:04:13.948Z,99417.00
2023-03-15T09:05:47.755Z,99410.00
2023-03-15T09:07:21.719Z,99414.00
2023-03-15T09:08:55.259Z,99428.00
2023-03-15T09:10:28.422Z,99429.00
2023-03-15T09:12:01.648Z,99423.00
2023-03-15T09:13:34.985Z,99428.00
2023-03-15T09:15:09.692Z,99420.00
2023-03-15T09:16:44.587Z,99431.00
2023-03-15T09:18:18.091Z,99423.00
2023-03-15T09:19:52.386Z,99420.00
2023-03-15T09:21:25.560Z,99422.00
2023-03-15T09:22:59.746Z,99430.00
2023-03-15T09:24:33.380Z,99419.00
2023-03-15T09:26:07.013Z,99420.00
2023-03-15T09:27:40.138Z,99428.00
2023-03-15T09:29:13.229Z,99427.00
2023-03-15T09:30:46.626Z,99440.00
2023-03-15T09:32:21.515Z,99434.00
2023-03-15T09:33:54.626Z,99441.00
2023-03-15T09:35:27.789Z,99433.00
2023-03-15T09:37:01.134Z,99439.00
2023-03-15T09:38:34.458Z,99450.00
2023-03-15T09:40:16.976Z,99436.00
2023-03-15T09:41:54.505Z,99446.00
2023-03-15T09:44:02.033Z,99451.00
2023-03-15T09:46:05.385Z,99451.00
2023-03-15T09:47:51.759Z,99452.00
2023-03-15T09:49:40.536Z,99449.00
2023-03-15T09:51:18.648Z,99451.00
2023-03-15T09:52:56.925Z,99455.00
2023-03-15T09:54:41.433Z,99463.00
2023-03-15T09:56:26.164Z,99455.00
2023-03-15T09:58:01.959Z,99462.00
2023-03-15T09:59:43.009Z,99459.00
2023-03-15T10:01:22.612Z,99458.00
2023-03-15T10:03:06.906Z,99467.00
2023-03-15T10:04:44.177Z,99467.00
2023-03-15T10:06:24.184Z,99464.00
2023-03-15T10:07:57.438Z,99469.00
2023-03-15T10:09:34.428Z,99464.00
2023-03-15T10:11:16.500Z,99466.00
2023-03-15T10:13:03.392Z,99463.00
2023-03-15T10:15:16.427Z,99457.00
2023-03-15T10:16:52.364Z,99459.00
2023-03-15T10:18:44.166Z,99457.00
2023-03-15T10:20:19.108Z,99468.00
2023-03-15T10:22:00.536Z,99457.00
2023-03-15T10:23:44.751Z,99456.00
2023-03-15T10:25:23.463Z,99454.00
2023-03-15T10:27:00.669Z,99455.00
2023-03-15T10:28:37.525Z,99457.00
2023-03-15T10:30:19.345Z,99471.00
2023-03-15T10:31:55.858Z,99467.00
2023-03-15T10:33:34.710Z,99464.00
2023-03-15T10:35:16.556Z,99460.00
2023-03-15T10:36:54.257Z,99475.00
2023-03-15T10:38:29.075Z,99482.00
2023-03-15T10:40:02.478Z,99482.00
2023-03-15T10:41:43.303Z,99479.00
2023-03-15T10:43:23.926Z,99479.00
2023-03-15T10:44:57.713Z,99477.00
2023-03-15T10:46:31.048Z,99470.00
2023-03-15T10:48:04.597Z,99476.00
2023-03-15T10:49:41.967Z,99477.00
2023-03-15T10:51:24.826Z,99477.00
2023-03-15T10:53:00.424Z,99470.00
2023-03-15T10:54:35.471Z,99471.00
2023-03-15T10:56:21.858Z,99475.00
2023-03-15T10:57:59.737Z,99475.00
2023-03-15T10:59:36.439Z,99469.00
2023-03-15T11:01:15.057Z,99479.00
2023-03-15T11:03:01.875Z,99480.00
2023-03-15T11:04:35.348Z,99488.00
2023-03-15T11:06:22.865Z,99485.00
2023-03-15T11:07:58.776Z,99493.00
2023-03-15T11:09:41.726Z,99486.00
2023-03-15T11:11:14.954Z,99488.00
2023-03-15T11:12:48.028Z,99482.00
2023-03-15T11:14:21.764Z,99484.00
2023-03-15T11:16:05.665Z,99487.00
2023-03-15T11:17:46.297Z,99477.00
2023-03-15T11:19:23.661Z,99485.00
2023-03-15T11:20:58.872Z,99494.00
2023-03-15T11:22:34.178Z,99497.00
2023-03-15T11:24:11.503Z,99498.00
2023-03-15T11:25:44.818Z,99493.00
2023-03-15T11:27:22.469Z,99495.00
2023-03-15T11:29:00.745Z,99489.00
2023-03-15T11:30:34.189Z,99496.00
2023-03-15T11:32:17.526Z,99492.00
2023-03-15T11:33:58.656Z,99505.00
2023-03-15T11:35:41.161Z,99501.00
2023-03-15T11:37:21.442Z,99512.00
2023-03-15T11:38:56.440Z,99502.00
2023-03-15T11:40:35.442Z,99509.00
2023-03-15T11:42:19.021Z,99511.00
2023-03-15T11:44:13.674Z,99512.00
2023-03-15T11:45:55.106Z,99521.00
2023-03-15T11:47:55.331Z,99534.00
2023-03-15T11:49:38.919Z,99517.00
2023-03-15T11:51:13.860Z,99520.00
2023-03-15T11:52:50.041Z,99519.00
2023-03-15T11:54:32.121Z,99525.00
2023-03-15T11:56:24.740Z,99522.00
2023-03-15T11:57:59.012Z,99516.00
2023-03-15T11:59:33.862Z,99528.00
2023-03-15T12:01:09.107Z,99520.00
2023-03-15T12:02:52.610Z,99525.00
2023-03-15T12:04:52.302Z,99528.00
2023-03-15T12:06:39.647Z,99524.00
2023-03-15T12:08:25.089Z,99519.00
2023-03-15T12:10:31.615Z,99520.00
2023-03-15T12:12:07.695Z,99514.00
2023-03-15T12:14:03.831Z,99511.00
2023-03-15T12:15:51.381Z,99517.00
2023-03-15T12:17:46.069Z,99530.00
2023-03-15T12:19:24.420Z,99517.00
2023-03-15T12:21:24.608Z,99520.00
2023-03-15T12:23:23.845Z,99521.00
2023-03-15T12:25:11.414Z,99524.00
2023-03-15T12:26:47.604Z,99523.00
2023-03-15T12:28:26.564Z,99520.00
2023-03-15T12:30:03.185Z,99512.00
2023-03-15T12:32:09.845Z,99519.00
2023-03-15T12:33:50.599Z,99514.00
2023-03-15T12:35:26.192Z,99518.00
2023-03-15T12:37:07.632Z,99520.00
2023-03-15T12:38:42.504Z,99526.00
2023-03-15T12:40:55.967Z,99519.00
2023-03-15T12:43:02.521Z,99517.00
2023-03-15T12:44:42.631Z,99511.00
2023-03-15T12:46:59.927Z,99523.00
2023-03-15T12:48:34.051Z,99516.00
2023-03-15T12:50:37.989Z,99512.00
2023-03-15T12:52:43.468Z,99521.00
2023-03-15T12:54:18.930Z,99514.00
2023-03-15T12:56:02.876Z,99502.00
2023-03-15T12:57:49.517Z,99505.00
2023-03-15T12:59:33.749Z,99519.00
2023-03-15T13:01:09.584Z,99504.00
2023-03-15T13:02:48.067Z,99506.00
2023-03-15T13:04:22.806Z,99509.00
2023-03-15T13:06:08.453Z,99505.00
2023-03-15T13:07:56.922Z,99512.00
2023-03-15T13:09:54.731Z,99516.00
2023-03-15T13:11:38.052Z,99523.00
2023-03-15T13:13:36.743Z,99520.00
2023-03-15T13:15:16.613Z,99512.00
2023-03-15T13:17:00.214Z,99509.00
2023-03-15T13:18:46.490Z,99513.00
2023-03-15T13:20:42.751Z,99529.00
2023-03-15T13:22:29.251Z,99524.00
2023-03-15T13:24:05.239Z,99511.00
2023-03-15T13:25:50.122Z,99518.00
2023-03-15T13:27:43.606Z,99519.00
2023-03-15T13:29:21.085Z,99518.00
2023-03-15T13:30:56.154Z,99512.00
2023-03-15T13:32:29.439Z,99522.00
2023-03-15T13:34:14.645Z,99521.00
2023-03-15T13:35:55.732Z,99517.00
2023-03-15T13:37:30.017Z,99527.00
2023-03-15T13:39:03.316Z,99522.00
2023-03-15T13:40:36.520Z,99517.00
2023-03-15T13:42:23.765Z,99519.00
2023-03-15T13:44:02.276Z,99525.00
2023-03-15T13:45:38.777Z,99525.00
2023-03-15T13:47:22.068Z,99526.00
2023-03-15T13:48:57.264Z,99521.00
2023-03-15T13:50:30.481Z,99514.00
2023-03-15T13:52:12.128Z,99521.00
2023-03-15T13:53:50.324Z,99520.00
2023-03-15T13:55:25.446Z,99515.00
2023-03-15T13:57:03.494Z,99517.00
2023-03-15T13:58:39.947Z,99514.00
2023-03-15T14:00:19.881Z,99504.00
2023-03-15T14:01:54.966Z,99517.00
2023-03-15T14:03:29.390Z,99520.00
2023-03-15T14:05:09.596Z,99513.00
2023-03-15T14:06:45.572Z,99520.00
2023-03-15T14:08:27.027Z,99527.00
2023-03-15T14:10:31.149Z,99528.00
2023-03-15T14:12:17.046Z,99532.00
2023-03-15T14:13:53.138Z,99530.00
2023-03-15T14:15:39.244Z,99532.00
2023-03-15T14:17:25.685Z,99537.00
2023-03-15T14:19:15.129Z,99536.00
2023-03-15T14:20:54.163Z,99534.00
2023-03-15T14:22:27.655Z,99542.00
2023-03-15T14:24:07.670Z,99546.00
2023-03-15T14:25:41.781Z,99533.00
2023-03-15T14:27:19.311Z,99540.00
2023-03-15T14:29:02.231Z,99549.00
2023-03-15T14:30:38.957Z,99533.00
2023-03-15T14:32:27.786Z,99539.00
2023-03-15T14:34:10.980Z,99533.00
2023-03-15T14:35:46.056Z,99538.00
2023-03-15T14:37:36.295Z,99535.00
2023-03-15T14:39:20.602Z,99545.00
2023-03-15T14:40:55.701Z,99541.00
2023-03-15T14:42:28.752Z,99541.00
2023-03-15T14:44:03.089Z,99538.00
2023-03-15T14:45:40.758Z,99537.00
2023-03-15T14:47:18.233Z,99541.00
2023-03-15T14:48:52.103Z,99549.00
2023-03-15T14:50:29.134Z,99543.00
2023-03-15T14:52:05.986Z,99542.00
2023-03-15T14:53:39.410Z,99549.00
2023-03-15T14:55:15.826Z,99548.00
2023-03-15T14:56:49.214Z,99549.00
2023-03-15T14:58:23.977Z,99549.00
2023-03-15T14:59:57.087Z,99549.00
2023-03-15T15:01:32.567Z,99556.00
2023-03-15T15:03:17.517Z,99554.00
2023-03-15T15:04:50.869Z,99572.00
2023-03-15T15:06:24.065Z,99570.00
2023-03-15T15:08:04.992Z,99565.00
2023-03-15T15:09:40.135Z,99569.00
2023-03-15T15:11:14.434Z,99572.00
2023-03-15T15:12:56.411Z,99580.00
2023-03-15T15:14:36.430Z,99578.00
2023-03-15T15:16:10.117Z,99580.00
2023-03-15T15:17:44.631Z,99595.00
2023-03-15T15:19:18.085Z,99584.00
2023-03-15T15:20:54.390Z,99583.00
2023-03-15T15:22:28.128Z,99579.00
2023-03-15T15:24:03.975Z,99585.00
2023-03-15T15:25:37.773Z,99577.00
2023-03-15T15:27:11.691Z,99590.00
2023-03-15T15:28:44.913Z,99576.00
2023-03-15T15:30:21.842Z,99577.00
2023-03-15T15:31:55.009Z,99576.00
2023-03-15T15:33:29.672Z,99580.00
2023-03-15T15:35:02.802Z,99583.00
2023-03-15T15:36:39.356Z,99584.00
2023-03-15T15:38:13.911Z,99573.00
2023-03-15T15:39:47.595Z,99568.00
2023-03-15T15:41:25.762Z,99571.00
2023-03-15T15:43:00.534Z,99579.00
2023-03-15T15:44:33.594Z,99575.00
2023-03-15T15:46:06.990Z,99577.00
2023-03-15T15:47:56.885Z,99575.00
2023-03-15T15:49:35.681Z,99569.00
2023-03-15T15:51:35.672Z,99583.00
2023-03-15T15:53:17.004Z,99575.00
2023-03-15T15:54:50.512Z,99568.00
2023-03-15T15:56:31.396Z,99574.00
2023-03-15T15:58:06.671Z,99572.00
2023-03-15T15:59:40.052Z,99577.00
2023-03-15T16:01:15.377Z,99581.00
2023-03-15T16:02:49.169Z,99575.00
2023-03-15T16:04:22.665Z,99576.00
2023-03-15T16:05:57.440Z,99579.00
2023-03-15T16:07:30.981Z,99585.00
2023-03-15T16:09:07.171Z,99578.00
2023-03-15T16:10:40.595Z,99580.00
2023-03-15T16:12:16.535Z,99583.00
2023-03-15T16:13:54.271Z,99585.00
2023-03-15T16:15:27.815Z,99576.00
2023-03-15T16:17:01.226Z,99588.00
2023-03-15T16:18:34.689Z,99580.00
2023-03-15T16:20:10.135Z,99579.00
2023-03-15T16:21:49.370Z,99579.00
2023-03-15T16:23:26.363Z,99581.00
2023-03-15T16:25:01.818Z,99584.00
2023-03-15T16:26:38.347Z,99575.00
2023-03-15T16:28:12.358Z,99590.00
2023-03-15T16:29:48.834Z,99581.00
2023-03-15T16:31:22.885Z,99583.00
2023-03-15T16:33:07.907Z,99579.00
2023-03-15T16:34:56.098Z,99581.00
2023-03-15T16:36:39.256Z,99581.00
2023-03-15T16:38:27.394Z,99574.00
2023-03-15T16:40:16.334Z,99580.00
2023-03-15T16:42:01.988Z,99581.00
2023-03-15T16:43:39.203Z,99581.00
2023-03-15T16:45:15.929Z,99579.00
2023-03-15T16:46:50.028Z,99591.00
2023-03-15T16:48:23.164Z,99584.00
2023-03-15T16:49:56.606Z,99581.00
2023-03-15T16:51:31.075Z,99584.00
2023-03-15T16:53:08.229Z,99599.00
2023-03-15T16:54:47.554Z,99584.00
2023-03-15T16:56:22.158Z,99588.00
2023-03-15T16:57:56.474Z,99594.00
2023-03-15T16:59:32.966Z,99590.00
2023-03-15T17:01:08.183Z,99598.00
2023-03-15T17:02:41.350Z,99600.00
2023-03-15T17:04:14.792Z,99598.00
2023-03-15T17:05:52.145Z,99597.00
2023-03-15T17:07:32.570Z,99600.00
2023-03-15T17:09:12.134Z,99602.00
2023-03-15T17:10:47.327Z,99595.00
2023-03-15T17:12:25.842Z,99615.00
2023-03-15T17:14:01.201Z,99611.00
2023-03-15T17:15:34.676Z,99611.00
2023-03-15T17:17:09.423Z,99613.00
2023-03-15T17:18:44.209Z,99604.00
2023-03-15T17:20:21.573Z,99617.00
2023-03-15T17:21:54.937Z,99611.00
2023-03-15T17:23:28.369Z,99606.00
2023-03-15T17:25:02.645Z,99615.00
2023-03-15T17:26:38.553Z,99611.00
2023-03-15T17:28:11.828Z,99612.00
2023-03-15T17:29:45.127Z,99621.00
2023-03-15T17:31:25.584Z,99620.00
2023-03-15T17:32:59.360Z,99620.00
2023-03-15T17:34:34.073Z,99616.00
2023-03-15T17:36:11.547Z,99614.00
2023-03-15T17:37:45.987Z,99620.00
2023-03-15T17:39:19.455Z,99624.00
2023-03-15T17:40:53.405Z,99627.00
2023-03-15T17:42:28.084Z,99628.00
2023-03-15T17:44:01.804Z,99629.00
2023-03-15T17:45:35.773Z,99630.00
2023-03-15T17:47:11.940Z,99632.00
2023-03-15T17:48:45.373Z,99635.00
2023-03-15T17:50:19.914Z,99641.00
2023-03-15T17:51:53.212Z,99645.00
2023-03-15T17:53:26.779Z,99648.00
2023-03-15T17:55:00.034Z,99648.00
2023-03-15T17:56:33.237Z,99647.00
2023-03-15T17:58:13.721Z,99646.00
2023-03-15T17:59:46.965Z,99648.00
2023-03-15T18:01:23.774Z,99651.00
2023-03-15T18:02:57.457Z,99650.00
2023-03-15T18:04:30.610Z,99657.00
2023-03-15T18:06:05.171Z,99646.00
2023-03-15T18:07:43.486Z,99650.00
2023-03-15T18:09:19.211Z,99653.00
2023-03-15T18:10:54.157Z,99647.00
2023-03-15T18:12:27.416Z,99656.00
2023-03-15T18:14:01.857Z,99662.00
2023-03-15T18:15:36.491Z,99657.00
2023-03-15T18:17:11.685Z,99664.00
2023-03-15T18:18:45.096Z,99668.00
2023-03-15T18:20:22.017Z,99659.00
2023-03-15T18:21:55.292Z,99659.00
2023-03-15T18:23:29.038Z,99668.00
2023-03-15T18:25:02.225Z,99668.00
2023-03-15T18:26:35.311Z,99676.00
2023-03-15T18:28:08.669Z,99662.00
2023-03-15T18:29:43.046Z,99666.00
2023-03-15T18:31:19.632Z,99666.00
2023-03-15T18:32:54.540Z,99672.00
2023-03-15T18:34:27.816Z,99675.00
2023-03-15T18:36:00.924Z,99673.00
2023-03-15T18:37:33.984Z,99672.00
2023-03-15T18:39:07.935Z,99683.00
2023-03-15T18:40:41.370Z,99671.00
2023-03-15T18:42:14.736Z,99670.00
2023-03-15T18:43:51.263Z,99678.00
2023-03-15T18:45:29.809Z,99679.00
2023-03-15T18:47:05.267Z,99684.00
2023-03-15T18:48:41.192Z,99680.00
2023-03-15T18:50:16.524Z,99690.00
2023-03-15T18:51:49.832Z,99682.00
2023-03-15T18:53:23.989Z,99689.00
2023-03-15T18:54:57.256Z,99692.00
2023-03-15T18:56:34.272Z,99689.00
2023-03-15T18:58:09.113Z,99700.00
2023-03-15T18:59:42.307Z,99703.00
2023-03-15T19:01:17.744Z,99695.00
2023-03-15T19:02:51.790Z,99701.00
2023-03-15T19:04:25.320Z,99704.00
2023-03-15T19:06:04.352Z,99702.00
2023-03-15T19:07:38.708Z,99698.00
2023-03-15T19:09:11.985Z,99695.00
2023-03-15T19:10:46.875Z,99708.00
2023-03-15T19:12:20.302Z,99712.00
2023-03-15T19:13:53.825Z,99707.00
2023-03-15T19:15:27.261Z,99704.00